Wetterdaten: Woche 29.05.17 - 04.06.17 (KW22)
Datum Zeit Temperatur Luftfeuchte Luftdruck Niederschlag Windrichtung Sonnenschein Solar Wind
29.05.2017 00:00 18,3 C 79 % 1014,3 hPa 0,0 l/m N 0,00 h 0 W/m 0,0 km/h (0 Bft)
29.05.2017 01:00 17,0 C 85 % 1014,0 hPa 0,0 l/m N 0,00 h 0 W/m 0,0 km/h (0 Bft)
29.05.2017 02:00 15,7 C 88 % 1013,5 hPa 0,0 l/m N 0,00 h 0 W/m 0,0 km/h (0 Bft)
29.05.2017 03:00 14,9 C 90 % 1013,2 hPa 0,0 l/m N 0,00 h 0 W/m 0,0 km/h (0 Bft)
29.05.2017 04:00 14,4 C 90 % 1013,1 hPa 0,0 l/m N 0,00 h 0 W/m 0,0 km/h (0 Bft)
29.05.2017 05:00 13,5 C 93 % 1013,0 hPa 0,0 l/m N 0,17 h 14 W/m 0,0 km/h (0 Bft)
29.05.2017 06:00 14,0 C 93 % 1013,3 hPa 0,0 l/m N 0,67 h 76 W/m 0,0 km/h (0 Bft)
29.05.2017 07:00 16,3 C 87 % 1013,3 hPa 0,0 l/m N 0,83 h 276 W/m 0,0 km/h (0 Bft)
29.05.2017 08:00 20,4 C 72 % 1013,1 hPa 0,0 l/m S 1,00 h 470 W/m 7,1 km/h (2 Bft)
29.05.2017 09:00 22,8 C 63 % 1013,0 hPa 0,0 l/m S-SW 0,83 h 469 W/m 9,4 km/h (2 Bft)
29.05.2017 10:00 24,9 C 60 % 1012,6 hPa 0,0 l/m S-SW 0,92 h 648 W/m 8,2 km/h (2 Bft)
29.05.2017 11:00 26,6 C 56 % 1012,3 hPa 0,0 l/m S-SW 1,00 h 805 W/m 7,4 km/h (2 Bft)
29.05.2017 12:00 28,1 C 49 % 1011,8 hPa 0,0 l/m S-SW 1,00 h 862 W/m 8,0 km/h (2 Bft)
29.05.2017 13:00 29,2 C 44 % 1011,4 hPa 0,0 l/m S-SW 1,00 h 867 W/m 8,9 km/h (2 Bft)
29.05.2017 14:00 30,3 C 37 % 1010,8 hPa 0,0 l/m S-SW 1,00 h 832 W/m 8,3 km/h (2 Bft)
29.05.2017 15:00 30,9 C 35 % 1010,5 hPa 0,0 l/m O-SO 1,00 h 747 W/m 11,3 km/h (2 Bft)
29.05.2017 16:00 31,3 C 32 % 1010,0 hPa 0,0 l/m NO 1,00 h 636 W/m 8,2 km/h (2 Bft)
29.05.2017 17:00 31,2 C 34 % 1009,4 hPa 0,0 l/m O-NO 1,00 h 489 W/m 9,8 km/h (2 Bft)
29.05.2017 18:00 30,5 C 34 % 1009,1 hPa 0,0 l/m O-SO 0,67 h 265 W/m 10,2 km/h (2 Bft)
29.05.2017 19:00 28,8 C 40 % 1009,2 hPa 0,0 l/m NO 0,75 h 143 W/m 10,2 km/h (2 Bft)
29.05.2017 20:00 26,0 C 52 % 1009,3 hPa 0,0 l/m NO 0,08 h 30 W/m 2,5 km/h (1 Bft)
29.05.2017 21:00 22,4 C 63 % 1009,5 hPa 0,0 l/m N 0,00 h 6 W/m 0,0 km/h (0 Bft)
29.05.2017 22:00 20,7 C 68 % 1009,9 hPa 0,0 l/m N 0,00 h 0 W/m 0,3 km/h (0 Bft)
29.05.2017 23:00 19,5 C 74 % 1010,5 hPa 0,0 l/m S-SO 0,00 h 0 W/m 1,5 km/h (1 Bft)
30.05.2017 00:00 19,2 C 74 % 1010,9 hPa 0,0 l/m SW 0,00 h 0 W/m 9,2 km/h (2 Bft)
30.05.2017 01:00 19,9 C 70 % 1011,3 hPa 0,0 l/m SW 0,00 h 0 W/m 17,2 km/h (3 Bft)
30.05.2017 02:00 19,1 C 76 % 1011,7 hPa 0,0 l/m S-SW 0,00 h 0 W/m 12,1 km/h (2 Bft)
30.05.2017 03:00 19,5 C 72 % 1011,3 hPa 0,0 l/m W 0,00 h 0 W/m 17,0 km/h (3 Bft)
30.05.2017 04:00 19,2 C 70 % 1011,3 hPa 0,0 l/m W 0,00 h 0 W/m 6,8 km/h (2 Bft)
30.05.2017 05:00 17,8 C 79 % 1011,4 hPa 0,0 l/m W 0,08 h 11 W/m 6,3 km/h (2 Bft)
30.05.2017 06:00 17,2 C 84 % 1011,5 hPa 0,0 l/m SW 0,00 h 27 W/m 10,6 km/h (2 Bft)
30.05.2017 07:00 17,9 C 85 % 1011,7 hPa 0,0 l/m SW 0,75 h 234 W/m 12,1 km/h (2 Bft)
30.05.2017 08:00 20,1 C 77 % 1011,9 hPa 0,0 l/m SW 1,00 h 425 W/m 12,2 km/h (2 Bft)
30.05.2017 09:00 22,1 C 70 % 1012,0 hPa 0,0 l/m SW 0,75 h 454 W/m 11,1 km/h (2 Bft)
30.05.2017 10:00 23,3 C 66 % 1012,1 hPa 0,0 l/m SW 0,58 h 454 W/m 7,8 km/h (2 Bft)
30.05.2017 11:00 24,8 C 60 % 1012,0 hPa 0,0 l/m S-SW 1,00 h 588 W/m 11,0 km/h (2 Bft)
30.05.2017 12:00 25,7 C 51 % 1011,7 hPa 0,0 l/m W-SW 0,92 h 733 W/m 10,5 km/h (2 Bft)
30.05.2017 13:00 27,3 C 46 % 1011,5 hPa 0,0 l/m W-SW 1,00 h 916 W/m 12,2 km/h (2 Bft)
30.05.2017 14:00 28,1 C 45 % 1011,0 hPa 0,0 l/m W 0,92 h 868 W/m 12,8 km/h (3 Bft)
30.05.2017 15:00 28,1 C 44 % 1010,5 hPa 0,0 l/m W 0,92 h 752 W/m 13,0 km/h (3 Bft)
30.05.2017 16:00 28,4 C 41 % 1010,1 hPa 0,0 l/m W 0,92 h 602 W/m 12,6 km/h (3 Bft)
30.05.2017 17:00 28,5 C 38 % 1010,2 hPa 0,0 l/m W 0,83 h 418 W/m 10,5 km/h (2 Bft)
30.05.2017 18:00 26,4 C 46 % 1010,6 hPa 0,0 l/m W-SW 0,08 h 111 W/m 8,0 km/h (2 Bft)
30.05.2017 19:00 24,9 C 48 % 1011,4 hPa 0,0 l/m N 0,00 h 67 W/m 13,7 km/h (3 Bft)
30.05.2017 20:00 23,6 C 54 % 1012,0 hPa 0,0 l/m N 0,00 h 26 W/m 9,8 km/h (2 Bft)
30.05.2017 21:00 21,9 C 68 % 1012,8 hPa 0,0 l/m N-NO 0,00 h 7 W/m 9,1 km/h (2 Bft)
30.05.2017 22:00 20,0 C 76 % 1013,8 hPa 0,0 l/m N 0,00 h 0 W/m 0,4 km/h (0 Bft)
30.05.2017 23:00 19,1 C 77 % 1014,3 hPa 0,0 l/m N 0,00 h 0 W/m 0,9 km/h (0 Bft)
31.05.2017 00:00 19,2 C 75 % 1015,1 hPa 0,0 l/m N-NO 0,00 h 0 W/m 5,2 km/h (1 Bft)
31.05.2017 01:00 17,5 C 90 % 1015,9 hPa 1,8 l/m W-SW 0,00 h 0 W/m 7,0 km/h (2 Bft)
31.05.2017 02:00 16,8 C 95 % 1016,1 hPa 0,0 l/m SW 0,00 h 0 W/m 3,7 km/h (1 Bft)
31.05.2017 03:00 16,1 C 97 % 1016,0 hPa 0,0 l/m N 0,00 h 0 W/m 0,4 km/h (0 Bft)
31.05.2017 04:00 16,0 C 97 % 1016,1 hPa 0,0 l/m N 0,00 h 0 W/m 0,0 km/h (0 Bft)
31.05.2017 05:00 15,6 C 97 % 1016,5 hPa 0,0 l/m N 0,00 h 10 W/m 0,0 km/h (0 Bft)
31.05.2017 06:00 15,5 C 98 % 1016,9 hPa 0,0 l/m N 0,50 h 78 W/m 0,0 km/h (0 Bft)
31.05.2017 07:00 16,7 C 97 % 1017,1 hPa 0,0 l/m SW 0,75 h 221 W/m 2,1 km/h (1 Bft)
31.05.2017 08:00 17,5 C 94 % 1017,3 hPa 0,0 l/m SW 0,25 h 202 W/m 1,7 km/h (1 Bft)
31.05.2017 09:00 19,4 C 85 % 1017,2 hPa 0,0 l/m SW 0,67 h 419 W/m 4,4 km/h (1 Bft)
31.05.2017 10:00 21,6 C 73 % 1016,9 hPa 0,0 l/m SW 0,83 h 613 W/m 5,5 km/h (1 Bft)
31.05.2017 11:00 22,4 C 65 % 1017,0 hPa 0,0 l/m W 0,67 h 730 W/m 6,0 km/h (2 Bft)
31.05.2017 12:00 23,5 C 60 % 1016,6 hPa 0,0 l/m NW 0,42 h 627 W/m 7,9 km/h (2 Bft)
31.05.2017 13:00 24,8 C 55 % 1016,4 hPa 0,0 l/m O 0,58 h 629 W/m 9,0 km/h (2 Bft)
31.05.2017 14:00 25,4 C 53 % 1015,9 hPa 0,0 l/m NO 0,58 h 655 W/m 8,9 km/h (2 Bft)
31.05.2017 15:00 25,9 C 51 % 1015,6 hPa 0,0 l/m O 0,75 h 671 W/m 12,2 km/h (2 Bft)
31.05.2017 16:00 26,0 C 51 % 1015,2 hPa 0,0 l/m NO 0,67 h 562 W/m 13,3 km/h (3 Bft)
31.05.2017 17:00 26,1 C 53 % 1014,9 hPa 0,0 l/m NO 0,92 h 493 W/m 16,6 km/h (3 Bft)
31.05.2017 18:00 24,6 C 55 % 1014,7 hPa 0,0 l/m N-NO 0,67 h 271 W/m 18,1 km/h (3 Bft)
31.05.2017 19:00 23,5 C 58 % 1015,1 hPa 0,0 l/m N-NO 0,50 h 145 W/m 16,1 km/h (3 Bft)
31.05.2017 20:00 21,2 C 65 % 1015,5 hPa 0,0 l/m N-NO 0,00 h 29 W/m 10,7 km/h (2 Bft)
31.05.2017 21:00 19,5 C 72 % 1016,1 hPa 0,0 l/m N-NO 0,00 h 6 W/m 5,6 km/h (1 Bft)
31.05.2017 22:00 18,3 C 78 % 1016,6 hPa 0,0 l/m N-NO 0,00 h 0 W/m 3,1 km/h (1 Bft)
31.05.2017 23:00 17,3 C 81 % 1016,7 hPa 0,0 l/m N 0,00 h 0 W/m 0,5 km/h (0 Bft)
01.06.2017 00:00 17,0 C 81 % 1016,8 hPa 0,0 l/m N-NO 0,00 h 0 W/m 4,4 km/h (1 Bft)
01.06.2017 01:00 16,3 C 82 % 1016,8 hPa 0,0 l/m N-NO 0,00 h 0 W/m 5,7 km/h (1 Bft)
01.06.2017 02:00 15,5 C 85 % 1017,1 hPa 0,0 l/m N-NO 0,00 h 0 W/m 1,9 km/h (1 Bft)
01.06.2017 03:00 15,8 C 83 % 1017,1 hPa 0,0 l/m N 0,00 h 0 W/m 2,0 km/h (1 Bft)
01.06.2017 04:00 15,9 C 82 % 1017,1 hPa 0,0 l/m N-NO 0,00 h 0 W/m 2,9 km/h (1 Bft)
01.06.2017 05:00 15,8 C 82 % 1017,1 hPa 0,0 l/m N-NO 0,08 h 12 W/m 2,4 km/h (1 Bft)
01.06.2017 06:00 16,0 C 81 % 1017,9 hPa 0,0 l/m N-NW 0,00 h 25 W/m 3,7 km/h (1 Bft)
01.06.2017 07:00 16,5 C 81 % 1018,1 hPa 0,0 l/m N-NW 0,00 h 75 W/m 3,7 km/h (1 Bft)
01.06.2017 08:00 17,0 C 80 % 1018,2 hPa 0,0 l/m SW 0,00 h 127 W/m 6,8 km/h (2 Bft)
01.06.2017 09:00 16,0 C 89 % 1018,1 hPa 0,0 l/m S-SW 0,00 h 262 W/m 10,7 km/h (2 Bft)
01.06.2017 10:00 17,6 C 82 % 1018,0 hPa 0,0 l/m SW 0,33 h 371 W/m 7,2 km/h (2 Bft)
01.06.2017 11:00 18,5 C 81 % 1018,1 hPa 0,0 l/m SW 0,42 h 445 W/m 7,1 km/h (2 Bft)
01.06.2017 12:00 20,4 C 73 % 1018,2 hPa 0,0 l/m NO 0,50 h 577 W/m 7,9 km/h (2 Bft)
01.06.2017 13:00 22,6 C 62 % 1017,8 hPa 0,0 l/m O-SO 0,83 h 643 W/m 11,4 km/h (2 Bft)
01.06.2017 14:00 23,4 C 59 % 1017,3 hPa 0,0 l/m O-NO 0,83 h 699 W/m 10,3 km/h (2 Bft)
01.06.2017 15:00 24,0 C 56 % 1016,8 hPa 0,0 l/m O-NO 0,58 h 578 W/m 12,2 km/h (2 Bft)
01.06.2017 16:00 24,7 C 53 % 1016,3 hPa 0,0 l/m O 0,50 h 447 W/m 9,9 km/h (2 Bft)
01.06.2017 17:00 24,3 C 53 % 1015,8 hPa 0,0 l/m O-NO 0,75 h 419 W/m 7,9 km/h (2 Bft)
01.06.2017 18:00 24,9 C 51 % 1015,6 hPa 0,0 l/m O 1,00 h 321 W/m 12,4 km/h (3 Bft)
01.06.2017 19:00 23,7 C 55 % 1015,5 hPa 0,0 l/m O 0,58 h 144 W/m 10,3 km/h (2 Bft)
01.06.2017 20:00 22,4 C 61 % 1015,5 hPa 0,0 l/m N 0,33 h 47 W/m 2,9 km/h (1 Bft)
01.06.2017 21:00 19,2 C 75 % 1015,7 hPa 0,0 l/m N 0,08 h 9 W/m 0,1 km/h (0 Bft)
01.06.2017 22:00 17,7 C 81 % 1016,3 hPa 0,0 l/m N 0,00 h 0 W/m 0,0 km/h (0 Bft)
01.06.2017 23:00 16,8 C 84 % 1016,2 hPa 0,0 l/m N 0,00 h 0 W/m 0,0 km/h (0 Bft)
02.06.2017 00:00 15,7 C 88 % 1015,9 hPa 0,0 l/m N 0,00 h 0 W/m 0,0 km/h (0 Bft)
02.06.2017 01:00 15,4 C 90 % 1016,0 hPa 0,0 l/m O 0,00 h 0 W/m 1,6 km/h (1 Bft)
02.06.2017 02:00 15,2 C 89 % 1015,7 hPa 0,0 l/m N 0,00 h 0 W/m 0,0 km/h (0 Bft)
02.06.2017 03:00 14,1 C 92 % 1015,5 hPa 0,0 l/m N 0,00 h 0 W/m 0,8 km/h (0 Bft)
02.06.2017 04:00 13,3 C 93 % 1015,3 hPa 0,0 l/m N 0,00 h 0 W/m 0,0 km/h (0 Bft)
02.06.2017 05:00 13,3 C 94 % 1015,4 hPa 0,0 l/m N 0,33 h 18 W/m 0,0 km/h (0 Bft)
02.06.2017 06:00 14,1 C 94 % 1015,4 hPa 0,0 l/m N 0,50 h 76 W/m 0,0 km/h (0 Bft)
02.06.2017 07:00 15,2 C 93 % 1015,6 hPa 0,0 l/m O 0,00 h 125 W/m 0,3 km/h (0 Bft)
02.06.2017 08:00 16,6 C 91 % 1015,8 hPa 0,0 l/m O-SO 0,08 h 207 W/m 2,8 km/h (1 Bft)
02.06.2017 09:00 19,3 C 82 % 1015,7 hPa 0,0 l/m SO 0,75 h 449 W/m 6,3 km/h (2 Bft)
02.06.2017 10:00 21,9 C 71 % 1015,3 hPa 0,0 l/m SW 0,92 h 645 W/m 9,3 km/h (2 Bft)
02.06.2017 11:00 22,3 C 70 % 1015,0 hPa 0,0 l/m SW 0,17 h 300 W/m 8,0 km/h (2 Bft)
02.06.2017 12:00 19,5 C 87 % 1014,8 hPa 5,4 l/m W-NW 0,00 h 209 W/m 7,2 km/h (2 Bft)
02.06.2017 13:00 19,9 C 85 % 1014,2 hPa 0,0 l/m N-NW 0,17 h 428 W/m 7,8 km/h (2 Bft)
02.06.2017 14:00 22,2 C 73 % 1013,8 hPa 0,0 l/m N-NO 0,67 h 541 W/m 11,4 km/h (2 Bft)
02.06.2017 15:00 21,0 C 71 % 1014,4 hPa 0,0 l/m N-NO 0,00 h 178 W/m 14,2 km/h (3 Bft)
02.06.2017 16:00 20,0 C 78 % 1014,0 hPa 0,2 l/m NO 0,17 h 282 W/m 7,0 km/h (2 Bft)
02.06.2017 17:00 21,4 C 71 % 1013,8 hPa 0,0 l/m NO 0,67 h 325 W/m 4,5 km/h (1 Bft)
02.06.2017 18:00 21,2 C 70 % 1013,6 hPa 0,0 l/m NO 0,33 h 179 W/m 2,3 km/h (1 Bft)
02.06.2017 19:00 19,2 C 78 % 1013,4 hPa 0,0 l/m N-NO 0,00 h 62 W/m 3,1 km/h (1 Bft)
02.06.2017 20:00 18,6 C 82 % 1013,6 hPa 0,0 l/m N 0,25 h 45 W/m 0,3 km/h (0 Bft)
02.06.2017 21:00 17,8 C 86 % 1013,8 hPa 0,0 l/m N 0,00 h 7 W/m 0,0 km/h (0 Bft)
02.06.2017 22:00 17,2 C 86 % 1013,9 hPa 0,0 l/m N 0,00 h 0 W/m 0,0 km/h (0 Bft)
02.06.2017 23:00 15,6 C 92 % 1013,8 hPa 0,0 l/m N 0,00 h 0 W/m 0,1 km/h (0 Bft)
03.06.2017 00:00 14,8 C 95 % 1013,5 hPa 0,0 l/m N 0,00 h 0 W/m 0,0 km/h (0 Bft)
03.06.2017 01:00 14,2 C 96 % 1013,4 hPa 0,0 l/m N 0,00 h 0 W/m 0,0 km/h (0 Bft)
03.06.2017 02:00 13,8 C 97 % 1013,3 hPa 0,0 l/m N 0,00 h 0 W/m 0,0 km/h (0 Bft)
03.06.2017 03:00 13,2 C 97 % 1013,4 hPa 0,0 l/m N 0,00 h 0 W/m 0,0 km/h (0 Bft)
03.06.2017 04:00 12,5 C 98 % 1013,1 hPa 0,0 l/m N 0,00 h 0 W/m 0,0 km/h (0 Bft)
03.06.2017 05:00 12,0 C 98 % 1013,0 hPa 0,0 l/m N 0,17 h 15 W/m 0,0 km/h (0 Bft)
03.06.2017 06:00 12,5 C 98 % 1013,2 hPa 0,2 l/m N 0,83 h 93 W/m 0,0 km/h (0 Bft)
03.06.2017 07:00 15,2 C 96 % 1013,4 hPa 0,0 l/m N-NO 0,92 h 244 W/m 0,5 km/h (0 Bft)
03.06.2017 08:00 18,1 C 88 % 1013,5 hPa 0,0 l/m N-NO 1,00 h 417 W/m 6,5 km/h (2 Bft)
03.06.2017 09:00 20,3 C 79 % 1013,1 hPa 0,0 l/m S-SW 0,83 h 458 W/m 10,1 km/h (2 Bft)
03.06.2017 10:00 22,1 C 70 % 1012,8 hPa 0,0 l/m S-SW 0,92 h 649 W/m 10,8 km/h (2 Bft)
03.06.2017 11:00 23,7 C 66 % 1012,5 hPa 0,0 l/m S-SW 1,00 h 806 W/m 12,8 km/h (3 Bft)
03.06.2017 12:00 25,1 C 59 % 1011,8 hPa 0,0 l/m S-SW 1,00 h 883 W/m 12,9 km/h (3 Bft)
03.06.2017 13:00 25,7 C 54 % 1010,9 hPa 0,0 l/m S-SW 0,92 h 816 W/m 14,4 km/h (3 Bft)
03.06.2017 14:00 26,2 C 51 % 1010,2 hPa 0,0 l/m W-SW 1,00 h 814 W/m 13,2 km/h (3 Bft)
03.06.2017 15:00 26,6 C 48 % 1009,2 hPa 0,0 l/m SW 1,00 h 678 W/m 9,8 km/h (2 Bft)
03.06.2017 16:00 27,1 C 45 % 1008,6 hPa 0,0 l/m N-NW 1,00 h 598 W/m 6,8 km/h (2 Bft)
03.06.2017 17:00 27,4 C 44 % 1007,8 hPa 0,0 l/m N-NW 1,00 h 477 W/m 6,1 km/h (2 Bft)
03.06.2017 18:00 26,7 C 44 % 1007,4 hPa 0,0 l/m NW 0,83 h 256 W/m 5,6 km/h (1 Bft)
03.06.2017 19:00 24,6 C 56 % 1007,2 hPa 0,0 l/m NW 0,00 h 66 W/m 2,7 km/h (1 Bft)
03.06.2017 20:00 22,0 C 71 % 1007,2 hPa 0,2 l/m N-NW 0,00 h 11 W/m 10,1 km/h (2 Bft)
03.06.2017 21:00 20,2 C 79 % 1007,6 hPa 0,0 l/m N 0,00 h 0 W/m 12,3 km/h (3 Bft)
03.06.2017 22:00 18,5 C 89 % 1007,9 hPa 3,2 l/m N 0,00 h 0 W/m 2,7 km/h (1 Bft)
03.06.2017 23:00 16,6 C 93 % 1008,8 hPa 31,6 l/m W-SW 0,00 h 0 W/m 29,1 km/h (5 Bft)
04.06.2017 00:00 15,4 C 97 % 1008,3 hPa 1,8 l/m SW 0,00 h 0 W/m 10,9 km/h (2 Bft)
04.06.2017 01:00 15,0 C 98 % 1008,3 hPa 0,0 l/m SW 0,00 h 0 W/m 6,1 km/h (2 Bft)
04.06.2017 02:00 14,8 C 99 % 1007,9 hPa 0,0 l/m SW 0,00 h 0 W/m 9,5 km/h (2 Bft)
04.06.2017 03:00 15,0 C 99 % 1007,8 hPa 0,0 l/m W-SW 0,00 h 0 W/m 12,9 km/h (3 Bft)
04.06.2017 04:00 15,2 C 99 % 1007,4 hPa 0,0 l/m SW 0,00 h 0 W/m 11,4 km/h (2 Bft)
04.06.2017 05:00 14,8 C 99 % 1007,7 hPa 0,0 l/m W-SW 0,00 h 8 W/m 27,5 km/h (4 Bft)
04.06.2017 06:00 14,3 C 99 % 1008,8 hPa 0,0 l/m W-SW 0,00 h 26 W/m 21,7 km/h (4 Bft)
04.06.2017 07:00 14,3 C 99 % 1010,0 hPa 0,0 l/m W-SW 0,00 h 50 W/m 23,3 km/h (4 Bft)
04.06.2017 08:00 14,6 C 96 % 1010,9 hPa 0,0 l/m W 0,00 h 159 W/m 17,7 km/h (3 Bft)
04.06.2017 09:00 15,0 C 92 % 1011,9 hPa 0,0 l/m W 0,00 h 153 W/m 14,4 km/h (3 Bft)
04.06.2017 10:00 16,2 C 86 % 1012,4 hPa 0,0 l/m W-NW 0,42 h 396 W/m 17,6 km/h (3 Bft)
04.06.2017 11:00 17,1 C 79 % 1012,8 hPa 0,0 l/m W-NW 0,50 h 502 W/m 17,3 km/h (3 Bft)
04.06.2017 12:00 17,3 C 78 % 1013,2 hPa 0,0 l/m W-NW 0,42 h 430 W/m 19,3 km/h (3 Bft)
04.06.2017 13:00 17,9 C 78 % 1013,3 hPa 0,0 l/m W-NW 0,67 h 674 W/m 14,8 km/h (3 Bft)
04.06.2017 14:00 19,8 C 66 % 1013,2 hPa 0,0 l/m NW 0,83 h 860 W/m 14,8 km/h (3 Bft)
04.06.2017 15:00 20,6 C 58 % 1013,1 hPa 0,0 l/m W-NW 0,83 h 829 W/m 14,0 km/h (3 Bft)
04.06.2017 16:00 21,7 C 49 % 1012,7 hPa 0,0 l/m W-NW 1,00 h 708 W/m 12,5 km/h (3 Bft)
04.06.2017 17:00 21,4 C 42 % 1012,4 hPa 0,0 l/m W 1,00 h 463 W/m 9,9 km/h (2 Bft)
04.06.2017 18:00 21,3 C 40 % 1012,2 hPa 0,0 l/m W 0,92 h 357 W/m 6,8 km/h (2 Bft)
04.06.2017 19:00 20,5 C 49 % 1012,1 hPa 0,0 l/m NO 0,42 h 114 W/m 6,2 km/h (2 Bft)
04.06.2017 20:00 18,1 C 72 % 1012,4 hPa 0,0 l/m NO 0,00 h 19 W/m 10,4 km/h (2 Bft)
04.06.2017 21:00 16,8 C 77 % 1013,2 hPa 0,0 l/m NO 0,00 h 6 W/m 14,1 km/h (3 Bft)
04.06.2017 22:00 15,9 C 80 % 1013,4 hPa 0,0 l/m N-NO 0,00 h 0 W/m 15,0 km/h (3 Bft)
04.06.2017 23:00 14,7 C 83 % 1013,0 hPa 0,0 l/m NO 0,00 h 0 W/m 7,9 km/h (2 Bft)
Min-Datum _ 03.06.17 29.05.17 03.06.17 - - - - 29.05.17
_ Min-Zeit 05:25 16:20 19:20 - - - - 00:00
Minimum _ 11,9 C 31 % 1007,1 hPa - - - - 0,0 km/h (0 Bft)
Max-Datum _ 29.05.17 04.06.17 01.06.17 03.06.17 - 29.05.17 01.06.17 03.06.17
_ Max-Zeit 16:10 01:35 12:00 23:35 - 05:45 12:55 23:40
Maximum _ 31,6 C 100 % 1018,4 hPa 31,6 l/m - 0,08 h 1148 W/m 67,6 km/h
N (8 Bft)
Durchschnitt _ 20,0 C 73 % 1013,3 hPa #44,4 l/m SW #62:40 h 364 W/m 7,4 km/h (2 Bft)